createdAt,value
2023-04-05T03:59:01.050Z,19.82
2023-04-05T04:00:00.955Z,19.86
2023-04-05T04:01:00.939Z,19.89
2023-04-05T04:02:01.017Z,19.89
2023-04-05T04:03:01.023Z,19.89
2023-04-05T04:04:00.955Z,19.89
2023-04-05T04:05:00.965Z,19.87
2023-04-05T04:06:00.942Z,19.89
2023-04-05T04:07:00.901Z,19.80
2023-04-05T04:08:00.902Z,19.90
2023-04-05T04:09:00.911Z,19.95
2023-04-05T04:10:00.877Z,19.90
2023-04-05T04:11:00.879Z,19.92
2023-04-05T04:12:00.876Z,19.93
2023-04-05T04:13:00.860Z,19.98
2023-04-05T04:14:00.869Z,19.97
2023-04-05T04:15:00.859Z,20.02
2023-04-05T04:16:00.896Z,19.97
2023-04-05T04:17:00.837Z,20.01
2023-04-05T04:18:00.890Z,20.07
2023-04-05T04:19:00.827Z,20.07
2023-04-05T04:20:00.835Z,20.01
2023-04-05T04:21:00.827Z,20.11
2023-04-05T04:22:00.819Z,20.10
2023-04-05T04:23:00.812Z,20.05
2023-04-05T04:24:00.883Z,20.11
2023-04-05T04:25:00.807Z,20.07
2023-04-05T04:26:00.824Z,20.15
2023-04-05T04:27:00.794Z,20.08
2023-04-05T04:28:00.790Z,20.16
2023-04-05T04:29:00.776Z,20.16
2023-04-05T04:30:00.789Z,20.16
2023-04-05T04:31:00.818Z,20.18
2023-04-05T04:32:00.810Z,20.16
2023-04-05T04:33:00.853Z,20.20
2023-04-05T04:34:00.776Z,20.12
2023-04-05T04:35:00.761Z,20.27
2023-04-05T04:36:00.796Z,20.23
2023-04-05T04:37:00.870Z,20.29
2023-04-05T04:38:00.760Z,20.26
2023-04-05T04:39:00.750Z,20.23
2023-04-05T04:40:00.741Z,20.23
2023-04-05T04:41:00.756Z,20.26
2023-04-05T04:42:00.723Z,20.26
2023-04-05T04:43:00.728Z,20.20
2023-04-05T04:44:00.739Z,20.22
2023-04-05T04:45:00.722Z,20.26
2023-04-05T04:46:00.730Z,20.30
2023-04-05T04:47:00.731Z,20.34
2023-04-05T04:48:00.713Z,20.30
2023-04-05T04:49:00.704Z,20.32
2023-04-05T04:50:00.703Z,20.40
2023-04-05T04:51:00.702Z,20.46
2023-04-05T04:52:00.680Z,20.37
2023-04-05T04:53:00.687Z,20.34
2023-04-05T04:54:00.691Z,20.40
2023-04-05T04:55:00.672Z,20.46
2023-04-05T04:56:00.664Z,20.37
2023-04-05T04:57:00.670Z,20.41
2023-04-05T04:58:00.663Z,20.41
2023-04-05T04:59:00.690Z,20.40
2023-04-05T05:00:00.645Z,20.42
2023-04-05T05:01:00.656Z,20.53
2023-04-05T05:02:00.647Z,20.42
2023-04-05T05:03:00.681Z,20.46
2023-04-05T05:04:00.716Z,20.41
2023-04-05T05:05:00.637Z,20.41
2023-04-05T05:06:00.628Z,20.48
2023-04-05T05:07:00.619Z,20.53
2023-04-05T05:08:00.625Z,20.51
2023-04-05T05:09:00.633Z,20.49
2023-04-05T05:10:00.640Z,20.51
2023-04-05T05:11:00.610Z,20.57
2023-04-05T05:12:00.617Z,20.53
2023-04-05T05:13:00.593Z,20.56
2023-04-05T05:14:00.592Z,20.58
2023-04-05T05:15:00.617Z,20.61
2023-04-05T05:16:00.613Z,20.58
2023-04-05T05:17:00.661Z,20.58
2023-04-05T05:18:00.662Z,20.57
2023-04-05T05:19:00.612Z,20.57
2023-04-05T05:20:00.563Z,20.57
2023-04-05T05:21:00.566Z,20.61
2023-04-05T05:22:00.560Z,20.57
2023-04-05T05:23:00.564Z,20.64
2023-04-05T05:24:00.565Z,20.57
2023-04-05T05:25:00.549Z,20.60
2023-04-05T05:26:00.548Z,20.63
2023-04-05T05:27:00.551Z,20.61
2023-04-05T05:28:00.557Z,20.63
2023-04-05T05:29:00.529Z,20.63
2023-04-05T05:30:00.521Z,20.63
2023-04-05T05:31:00.553Z,20.68
2023-04-05T05:32:00.554Z,20.64
2023-04-05T05:33:00.542Z,20.66
2023-04-05T05:34:00.515Z,20.71
2023-04-05T05:35:00.521Z,20.75
2023-04-05T05:36:00.545Z,20.68
2023-04-05T05:37:00.501Z,20.68
2023-04-05T05:38:00.499Z,20.76
2023-04-05T05:39:00.485Z,20.75
2023-04-05T05:40:00.513Z,20.67
2023-04-05T05:41:00.486Z,20.66
2023-04-05T05:42:00.469Z,20.72
2023-04-05T05:43:00.484Z,20.74
2023-04-05T05:44:00.470Z,20.79
2023-04-05T05:45:00.463Z,20.81
2023-04-05T05:46:00.519Z,20.81
2023-04-05T05:47:00.467Z,20.74
2023-04-05T05:48:00.475Z,20.82
2023-04-05T05:49:00.458Z,20.81
2023-04-05T05:50:00.444Z,20.88
2023-04-05T05:51:00.458Z,20.81
2023-04-05T05:52:00.442Z,20.81
2023-04-05T05:53:01.861Z,20.94
2023-04-05T05:54:00.426Z,20.86
2023-04-05T05:55:00.463Z,20.91
2023-04-05T05:56:00.422Z,20.97
2023-04-05T05:57:00.453Z,21.03
2023-04-05T05:58:00.413Z,20.96
2023-04-05T05:59:00.460Z,21.03
2023-04-05T06:00:00.408Z,21.00
2023-04-05T06:01:00.433Z,21.01
2023-04-05T06:02:00.424Z,21.04
2023-04-05T06:03:00.449Z,21.01
2023-04-05T06:04:00.522Z,21.06
2023-04-05T06:05:00.468Z,21.11
2023-04-05T06:06:00.400Z,21.22
2023-04-05T06:07:00.402Z,21.18
2023-04-05T06:08:00.381Z,21.21
2023-04-05T06:09:00.374Z,21.21
2023-04-05T06:10:00.379Z,21.27
2023-04-05T06:11:00.364Z,21.25
2023-04-05T06:12:00.354Z,21.38
2023-04-05T06:13:00.359Z,21.33
2023-04-05T06:14:00.369Z,21.28
2023-04-05T06:15:00.383Z,21.43
2023-04-05T06:16:00.379Z,21.34
2023-04-05T06:17:00.381Z,21.40
2023-04-05T06:18:00.386Z,21.37
2023-04-05T06:19:00.352Z,21.51
2023-04-05T06:20:00.393Z,21.45
2023-04-05T06:21:00.321Z,21.52
2023-04-05T06:22:00.342Z,21.61
2023-04-05T06:23:00.323Z,21.56
2023-04-05T06:24:00.314Z,21.59
2023-04-05T06:25:00.320Z,21.61
2023-04-05T06:26:00.306Z,21.64
2023-04-05T06:27:00.339Z,21.64
2023-04-05T06:28:00.298Z,21.67
2023-04-05T06:29:00.294Z,21.74
2023-04-05T06:30:00.382Z,21.73
2023-04-05T06:31:00.291Z,21.73
2023-04-05T06:32:00.387Z,21.76
2023-04-05T06:33:00.320Z,21.78
2023-04-05T06:34:00.288Z,21.82
2023-04-05T06:35:00.506Z,21.82
2023-04-05T06:36:00.296Z,21.80
2023-04-05T06:37:00.277Z,21.86
2023-04-05T06:38:00.271Z,21.92
2023-04-05T06:39:00.270Z,21.94
2023-04-05T06:40:00.261Z,22.00
2023-04-05T06:41:00.350Z,22.05
2023-04-05T06:42:00.256Z,22.07
2023-04-05T06:43:00.284Z,22.12
2023-04-05T06:44:00.335Z,22.12
2023-04-05T06:45:00.287Z,22.07
2023-04-05T06:46:00.375Z,22.08
2023-04-05T06:47:00.336Z,22.26
2023-04-05T06:48:00.355Z,22.12
2023-04-05T06:49:02.394Z,22.15
2023-04-05T06:50:00.301Z,22.24
2023-04-05T06:51:00.324Z,22.26
2023-04-05T06:52:00.328Z,22.18
2023-04-05T06:53:00.223Z,22.22
2023-04-05T06:54:00.208Z,22.27
2023-04-05T06:55:00.222Z,22.31
2023-04-05T06:56:00.204Z,22.36
2023-04-05T06:57:01.823Z,22.38
2023-04-05T06:58:00.246Z,22.36
2023-04-05T06:59:00.368Z,22.39
2023-04-05T07:00:00.248Z,22.44
2023-04-05T07:01:00.220Z,22.45
2023-04-05T07:02:00.194Z,22.45
2023-04-05T07:03:00.243Z,22.45
2023-04-05T07:04:00.238Z,22.59
2023-04-05T07:05:00.184Z,22.59
2023-04-05T07:06:00.252Z,22.60
2023-04-05T07:07:00.176Z,22.61
2023-04-05T07:08:00.313Z,22.60
2023-04-05T07:09:00.179Z,22.64
2023-04-05T07:10:00.197Z,22.73
2023-04-05T07:11:00.176Z,22.81
2023-04-05T07:12:00.157Z,22.64
2023-04-05T07:13:00.166Z,22.82
2023-04-05T07:14:00.189Z,22.82
2023-04-05T07:15:00.157Z,22.78
2023-04-05T07:16:00.207Z,22.86
2023-04-05T07:17:00.154Z,22.89
2023-04-05T07:18:00.257Z,22.92
2023-04-05T07:19:00.174Z,22.96
2023-04-05T07:20:00.169Z,22.86
2023-04-05T07:21:00.266Z,23.00
2023-04-05T07:22:00.176Z,23.06
2023-04-05T07:23:00.140Z,23.01
2023-04-05T07:24:00.140Z,23.01
2023-04-05T07:25:00.164Z,23.04
2023-04-05T07:26:00.304Z,23.06
2023-04-05T07:27:00.146Z,23.09
2023-04-05T07:28:00.137Z,23.12
2023-04-05T07:29:00.158Z,23.14
2023-04-05T07:30:00.145Z,23.15
2023-04-05T07:31:00.149Z,23.24
2023-04-05T07:32:00.173Z,23.22
2023-04-05T07:33:00.177Z,23.22
2023-04-05T07:34:00.159Z,23.29
2023-04-05T07:35:00.178Z,23.19
2023-04-05T07:36:00.163Z,23.37
2023-04-05T07:37:00.114Z,23.47
2023-04-05T07:38:00.139Z,23.41
2023-04-05T07:39:00.344Z,23.28
2023-04-05T07:40:00.170Z,23.38
2023-04-05T07:41:00.127Z,23.37
2023-04-05T07:42:00.109Z,23.53
2023-04-05T07:43:00.122Z,23.48
2023-04-05T07:44:00.171Z,23.56
2023-04-05T07:45:00.134Z,23.56
2023-04-05T07:46:00.208Z,23.60
2023-04-05T07:47:00.117Z,23.60
2023-04-05T07:48:00.183Z,23.62
2023-04-05T07:49:00.119Z,23.66
2023-04-05T07:50:00.150Z,23.67
2023-04-05T07:51:00.139Z,23.67
2023-04-05T07:52:00.091Z,23.71
2023-04-05T07:53:00.097Z,23.72
2023-04-05T07:54:01.860Z,23.71
2023-04-05T07:55:00.122Z,23.81
2023-04-05T07:56:00.132Z,23.84
2023-04-05T07:57:00.121Z,23.75
2023-04-05T07:58:00.129Z,23.77
2023-04-05T07:59:00.263Z,23.85
2023-04-05T08:00:00.112Z,23.90
2023-04-05T08:01:00.109Z,23.89
2023-04-05T08:02:08.291Z,23.93
2023-04-05T08:03:02.144Z,23.97
2023-04-05T08:04:00.191Z,24.00
2023-04-05T08:05:00.272Z,23.93
2023-04-05T08:08:32.578Z,24.00
2023-04-05T08:09:32.585Z,24.02
2023-04-05T08:10:32.576Z,24.09
2023-04-05T08:11:32.570Z,24.11
2023-04-05T08:12:32.592Z,24.07
2023-04-05T08:13:32.561Z,24.09
2023-04-05T08:14:32.595Z,24.08
2023-04-05T08:15:32.567Z,24.12
2023-04-05T08:16:32.640Z,24.12
2023-04-05T08:17:32.576Z,24.15
2023-04-05T08:18:32.584Z,24.11
2023-04-05T08:19:32.569Z,24.17
2023-04-05T08:20:32.585Z,24.11
2023-04-05T08:21:32.583Z,24.15
2023-04-05T08:22:32.566Z,24.18
2023-04-05T08:23:32.580Z,24.19
2023-04-05T08:24:32.563Z,24.19
2023-04-05T08:25:32.571Z,24.24
2023-04-05T08:26:32.554Z,24.24
2023-04-05T08:27:32.546Z,24.22
2023-04-05T08:28:32.566Z,24.22
2023-04-05T08:29:32.554Z,24.26
2023-04-05T08:30:32.561Z,24.32
2023-04-05T08:31:32.584Z,24.29
2023-04-05T08:32:32.593Z,24.27
2023-04-05T08:33:32.537Z,24.29
2023-04-05T08:34:32.564Z,24.29
2023-04-05T08:35:32.581Z,24.34
2023-04-05T08:36:32.552Z,24.32
2023-04-05T08:37:32.533Z,24.29
2023-04-05T08:38:32.564Z,24.34
2023-04-05T08:39:32.533Z,24.30
2023-04-05T08:40:32.544Z,24.39
2023-04-05T08:41:32.538Z,24.37
2023-04-05T08:42:32.555Z,24.40
2023-04-05T08:43:32.545Z,24.44
2023-04-05T08:44:32.556Z,24.46
2023-04-05T08:45:32.562Z,24.44
2023-04-05T08:46:32.565Z,24.52
2023-04-05T08:47:32.573Z,24.54
2023-04-05T08:48:32.533Z,24.49
2023-04-05T08:49:32.538Z,24.55
2023-04-05T08:50:32.523Z,24.45
2023-04-05T08:51:32.526Z,24.46
2023-04-05T08:52:32.542Z,24.48
2023-04-05T08:53:32.533Z,24.54
2023-04-05T08:54:32.540Z,24.54
2023-04-05T08:55:32.532Z,24.45
2023-04-05T08:56:32.536Z,24.63
2023-04-05T08:57:32.527Z,24.58
2023-04-05T08:58:32.528Z,24.55
2023-04-05T08:59:32.753Z,24.61
2023-04-05T09:00:32.513Z,24.61
2023-04-05T09:01:32.543Z,24.63
2023-04-05T09:02:32.664Z,24.61
2023-04-05T09:03:32.643Z,24.64
2023-04-05T09:04:32.517Z,24.63
2023-04-05T09:05:32.521Z,24.66
2023-04-05T09:06:32.514Z,24.70
2023-04-05T09:07:32.556Z,24.74
2023-04-05T09:08:32.538Z,24.71
2023-04-05T09:09:32.517Z,24.69
2023-04-05T09:10:32.516Z,24.75
2023-04-05T09:11:32.549Z,24.64
2023-04-05T09:12:32.542Z,24.75
2023-04-05T09:13:32.509Z,24.71
2023-04-05T09:14:32.504Z,24.78
2023-04-05T09:15:32.503Z,24.80
2023-04-05T09:16:32.526Z,24.74
2023-04-05T09:17:32.676Z,24.86
2023-04-05T09:18:32.599Z,24.80
2023-04-05T09:19:32.504Z,24.86
2023-04-05T09:20:32.504Z,24.77
2023-04-05T09:21:32.504Z,24.85
2023-04-05T09:22:32.539Z,24.83
2023-04-05T09:23:32.530Z,24.93
2023-04-05T09:24:32.506Z,24.94
2023-04-05T09:25:32.518Z,24.93
2023-04-05T09:26:32.633Z,24.89
2023-04-05T09:27:32.526Z,24.97
2023-04-05T09:28:32.512Z,24.90
2023-04-05T09:29:32.496Z,24.97
2023-04-05T09:30:32.502Z,25.01
2023-04-05T09:31:32.559Z,25.05
2023-04-05T09:32:32.538Z,25.07
2023-04-05T09:33:32.518Z,25.02
2023-04-05T09:34:32.552Z,25.05
2023-04-05T09:35:32.529Z,25.07
2023-04-05T09:36:32.498Z,25.02
2023-04-05T09:37:32.499Z,25.12
2023-04-05T09:38:32.498Z,25.11
2023-04-05T09:39:32.522Z,25.14
2023-04-05T09:40:32.498Z,25.05
2023-04-05T09:41:32.534Z,25.07
2023-04-05T09:42:32.494Z,25.14
2023-04-05T09:43:32.499Z,25.14
2023-04-05T09:44:32.499Z,25.23
2023-04-05T09:45:32.511Z,25.17
2023-04-05T09:46:32.585Z,25.22
2023-04-05T09:47:32.562Z,25.24
2023-04-05T09:48:32.491Z,25.27
2023-04-05T09:49:32.511Z,25.23
2023-04-05T09:50:32.535Z,25.20
2023-04-05T09:51:32.539Z,25.27
2023-04-05T09:52:32.498Z,25.23
2023-04-05T09:53:32.494Z,25.32
2023-04-05T09:54:32.493Z,25.37
2023-04-05T09:55:32.516Z,25.37
2023-04-05T09:56:32.513Z,25.39
2023-04-05T09:57:32.497Z,25.32
2023-04-05T09:58:32.495Z,25.37
2023-04-05T09:59:32.599Z,25.38
2023-04-05T10:00:32.533Z,25.45
2023-04-05T10:01:32.557Z,25.39
2023-04-05T10:13:19.191Z,25.54
2023-04-05T10:14:19.267Z,25.62
2023-04-05T10:15:19.116Z,25.69
2023-04-05T10:16:19.141Z,25.63
2023-04-05T10:17:19.145Z,25.67
2023-04-05T10:18:19.145Z,25.71
2023-04-05T10:19:19.104Z,25.78
2023-04-05T10:20:19.197Z,25.76
2023-04-05T10:21:19.111Z,25.75
2023-04-05T10:22:19.102Z,25.81
2023-04-05T10:23:19.094Z,25.82
2023-04-05T10:24:19.107Z,25.85
2023-04-05T10:25:19.109Z,25.86
2023-04-05T10:26:19.152Z,25.93
2023-04-05T10:27:19.109Z,25.97
2023-04-05T10:28:19.108Z,26.03
2023-04-05T10:29:19.170Z,26.00
2023-04-05T10:30:19.108Z,26.00
2023-04-05T10:31:30.580Z,26.00
2023-04-05T10:32:19.159Z,26.11
2023-04-05T10:33:19.150Z,26.11
2023-04-05T10:34:19.092Z,26.09
2023-04-05T10:35:19.094Z,26.31
2023-04-05T10:36:19.140Z,26.35
2023-04-05T10:37:19.102Z,26.31
2023-04-05T10:38:19.107Z,26.32
2023-04-05T10:39:19.137Z,26.44
2023-04-05T10:40:19.111Z,26.35
2023-04-05T10:41:19.128Z,26.44
2023-04-05T10:42:19.129Z,26.44
2023-04-05T10:43:19.107Z,26.50
2023-04-05T10:44:26.161Z,26.50
2023-04-05T10:45:19.143Z,26.52
2023-04-05T10:46:19.154Z,26.68
2023-04-05T10:47:19.213Z,26.60
2023-04-05T10:48:19.112Z,26.75
2023-04-05T10:49:19.162Z,26.69
2023-04-05T10:50:19.184Z,26.81
2023-04-05T10:51:19.115Z,26.76
2023-04-05T10:52:19.164Z,26.96
2023-04-05T10:53:19.172Z,26.87
2023-04-05T10:54:19.119Z,26.86
2023-04-05T10:55:19.182Z,26.99
2023-04-05T10:56:19.140Z,27.00
2023-04-05T10:57:19.170Z,27.01
2023-04-05T10:59:19.205Z,27.08
2023-04-05T11:00:19.196Z,27.19
2023-04-05T11:01:19.181Z,27.23
2023-04-05T11:02:19.147Z,27.21
2023-04-05T11:03:19.222Z,27.24
2023-04-05T11:04:19.170Z,27.19
2023-04-05T11:05:19.204Z,27.28
2023-04-05T11:06:19.153Z,27.28
2023-04-05T11:07:19.147Z,27.24
2023-04-05T11:08:19.153Z,27.31
2023-04-05T11:09:19.160Z,27.23
2023-04-05T11:10:19.169Z,27.26
2023-04-05T11:11:19.189Z,27.27
2023-04-05T11:12:19.166Z,27.30
2023-04-05T11:13:19.165Z,27.34
2023-04-05T11:14:19.183Z,27.42
2023-04-05T11:15:19.166Z,27.45
2023-04-05T11:16:19.213Z,27.52
2023-04-05T11:17:19.183Z,27.55
2023-04-05T11:18:19.184Z,27.52
2023-04-05T11:19:19.174Z,27.59
2023-04-05T11:20:19.203Z,27.64
2023-04-05T11:21:19.171Z,27.65
2023-04-05T11:22:19.176Z,27.66
2023-04-05T11:23:19.213Z,27.81
2023-04-05T11:24:19.191Z,27.84
2023-04-05T11:25:19.193Z,27.89
2023-04-05T11:26:19.183Z,27.94
2023-04-05T11:27:19.191Z,28.03
2023-04-05T11:28:19.215Z,28.06
2023-04-05T11:29:19.193Z,28.03
2023-04-05T11:30:19.196Z,28.24
2023-04-05T11:31:19.502Z,28.31
2023-04-05T11:32:19.203Z,28.27
2023-04-05T11:33:19.241Z,28.35
2023-04-05T11:34:19.214Z,28.43
2023-04-05T11:35:19.223Z,28.51
2023-04-05T11:36:19.227Z,28.57
2023-04-05T11:37:19.214Z,28.55
2023-04-05T11:38:19.222Z,28.75
2023-04-05T11:39:19.273Z,28.73
2023-04-05T11:40:19.237Z,28.85
2023-04-05T11:41:19.232Z,28.86
2023-04-05T11:42:19.235Z,28.94
2023-04-05T11:43:19.243Z,28.97
2023-04-05T11:44:19.245Z,29.10
2023-04-05T11:45:19.243Z,29.14
2023-04-05T11:46:19.403Z,29.23
2023-04-05T11:47:19.262Z,29.30
2023-04-05T11:48:19.254Z,29.33
2023-04-05T11:49:19.329Z,29.40
2023-04-05T11:50:19.252Z,29.40
2023-04-05T11:51:19.262Z,29.45
2023-04-05T11:52:19.266Z,29.60
2023-04-05T11:53:19.271Z,29.67
2023-04-05T11:54:19.285Z,29.77
2023-04-05T11:55:19.274Z,29.81
2023-04-05T11:56:19.291Z,29.87
2023-04-05T11:57:19.281Z,29.95
2023-04-05T11:58:19.336Z,30.07
2023-04-05T11:59:19.374Z,30.16
2023-04-05T12:00:19.292Z,30.19
2023-04-05T12:01:21.013Z,30.22
2023-04-05T12:02:19.310Z,30.34
2023-04-05T12:03:19.388Z,30.40
2023-04-05T12:04:19.336Z,30.56
2023-04-05T12:05:19.492Z,30.60
2023-04-05T12:06:19.318Z,30.60
2023-04-05T12:07:19.325Z,30.75
2023-04-05T12:08:19.333Z,30.86
2023-04-05T12:09:19.339Z,30.86
2023-04-05T12:10:19.354Z,30.81
2023-04-05T12:11:19.354Z,30.93
2023-04-05T12:12:19.346Z,31.06
2023-04-05T12:13:19.350Z,31.16
2023-04-05T12:14:19.356Z,31.23
2023-04-05T12:15:19.462Z,31.28
2023-04-05T12:16:19.454Z,31.38
2023-04-05T12:17:19.368Z,31.45
2023-04-05T12:18:19.371Z,31.59
2023-04-05T12:19:19.415Z,31.65
2023-04-05T12:20:19.424Z,31.70
2023-04-05T12:21:19.420Z,31.86
2023-04-05T12:22:19.404Z,31.95
2023-04-05T12:23:19.389Z,32.05
2023-04-05T12:24:19.423Z,32.09
2023-04-05T12:25:19.416Z,32.16
2023-04-05T12:26:19.415Z,32.30
2023-04-05T12:27:19.442Z,32.34
2023-04-05T12:28:19.419Z,32.42
2023-04-05T12:29:19.426Z,32.50
2023-04-05T12:30:19.487Z,32.62
2023-04-05T12:31:19.439Z,32.71
2023-04-05T12:32:21.093Z,32.83
2023-04-05T12:33:19.449Z,32.83
2023-04-05T12:34:19.460Z,32.89
2023-04-05T12:35:19.472Z,33.13
2023-04-05T12:36:19.480Z,33.02
2023-04-05T12:37:19.514Z,33.21
2023-04-05T12:38:19.489Z,33.32
2023-04-05T12:39:19.490Z,33.44
2023-04-05T12:40:19.516Z,33.41
2023-04-05T12:41:19.488Z,33.50
2023-04-05T12:42:19.503Z,33.62
2023-04-05T12:43:19.530Z,33.66
2023-04-05T12:45:52.064Z,33.89
2023-04-05T12:46:52.047Z,33.92
2023-04-05T12:47:52.112Z,33.93
2023-04-05T12:48:52.064Z,34.10
2023-04-05T12:49:52.065Z,34.15
2023-04-05T12:50:52.126Z,34.19
2023-04-05T12:51:52.080Z,34.32
2023-04-05T12:52:52.115Z,34.36
2023-04-05T12:53:52.086Z,34.39
2023-04-05T12:54:52.101Z,34.46
2023-04-05T12:55:52.103Z,34.54
2023-04-05T12:56:52.137Z,34.61
2023-04-05T12:57:52.128Z,34.66
2023-04-05T12:58:52.147Z,34.72
2023-04-05T12:59:52.117Z,34.67
2023-04-05T13:00:52.148Z,34.77
2023-04-05T13:01:52.463Z,34.74
2023-04-05T13:02:52.245Z,34.83
2023-04-05T13:03:54.918Z,34.84
2023-04-05T13:04:52.170Z,34.89
2023-04-05T13:05:52.161Z,34.89
2023-04-05T13:06:52.164Z,34.96
2023-04-05T13:07:52.176Z,34.97
2023-04-05T13:08:52.209Z,35.04
2023-04-05T13:09:52.214Z,35.13
2023-04-05T13:10:52.195Z,35.13
2023-04-05T13:11:52.201Z,35.26
2023-04-05T13:12:52.218Z,35.30
2023-04-05T13:13:52.231Z,35.38
2023-04-05T13:14:52.228Z,35.28
2023-04-05T13:15:52.526Z,35.34
2023-04-05T13:16:52.236Z,35.42
2023-04-05T13:17:52.334Z,35.52
2023-04-05T13:18:52.298Z,35.52
2023-04-05T13:19:52.272Z,35.64
2023-04-05T13:20:52.266Z,35.58
2023-04-05T13:21:52.277Z,35.64
2023-04-05T13:22:52.293Z,35.71
2023-04-05T13:23:52.305Z,35.69
2023-04-05T13:24:52.327Z,35.79
2023-04-05T13:25:52.301Z,35.77
2023-04-05T13:26:52.308Z,35.76
2023-04-05T13:27:52.319Z,35.82
2023-04-05T13:28:52.354Z,35.83
2023-04-05T13:29:52.395Z,35.89
2023-04-05T13:30:54.131Z,35.96
2023-04-05T13:31:52.381Z,36.01
2023-04-05T13:32:52.404Z,35.92
2023-04-05T13:33:52.356Z,35.96
2023-04-05T13:34:52.375Z,36.04
2023-04-05T13:35:52.403Z,36.05
2023-04-05T13:36:52.378Z,36.08
2023-04-05T13:37:52.392Z,35.99
2023-04-05T13:38:52.403Z,36.08
2023-04-05T13:39:52.409Z,36.21
2023-04-05T13:40:52.448Z,36.09
2023-04-05T13:41:52.421Z,36.17
2023-04-05T13:42:52.431Z,36.09
2023-04-05T13:43:52.437Z,36.21
2023-04-05T13:44:52.455Z,36.19
2023-04-05T13:45:52.487Z,36.21
2023-04-05T13:46:52.459Z,36.18
2023-04-05T13:47:52.486Z,36.12
2023-04-05T13:48:52.477Z,36.18
2023-04-05T13:49:52.488Z,36.15
2023-04-05T13:50:52.514Z,36.15
2023-04-05T13:51:52.518Z,36.19
2023-04-05T13:52:52.506Z,36.22
2023-04-05T13:53:52.543Z,36.18
2023-04-05T13:55:02.623Z,36.26
2023-04-05T13:55:52.550Z,36.22
2023-04-05T13:56:52.562Z,36.19
2023-04-05T13:57:52.582Z,36.18
2023-04-05T13:58:52.615Z,36.21
2023-04-05T13:59:52.649Z,36.21
2023-04-05T14:00:52.588Z,36.30
2023-04-05T14:01:52.669Z,36.21
2023-04-05T14:02:52.696Z,36.26
2023-04-05T14:03:52.744Z,36.24
2023-04-05T14:04:52.639Z,36.21
2023-04-05T14:05:55.228Z,36.09
2023-04-05T14:06:52.631Z,36.21
2023-04-05T14:07:52.635Z,36.17
2023-04-05T14:08:52.635Z,36.22
2023-04-05T14:09:52.642Z,36.26
2023-04-05T14:10:52.656Z,36.19
2023-04-05T14:11:52.671Z,36.18
2023-04-05T14:12:52.681Z,36.26
2023-04-05T14:13:52.673Z,36.24
2023-04-05T14:14:52.688Z,36.19
2023-04-05T14:15:52.782Z,36.24
2023-04-05T14:16:52.693Z,36.19
2023-04-05T14:17:52.817Z,36.14
2023-04-05T14:18:52.715Z,36.19
2023-04-05T14:19:52.726Z,36.17
2023-04-05T14:20:52.753Z,36.18
2023-04-05T14:21:52.738Z,36.15
2023-04-05T14:22:52.763Z,36.15
2023-04-05T14:23:52.765Z,36.15
2023-04-05T14:24:52.863Z,36.15
2023-04-05T14:25:52.782Z,36.09
2023-04-05T14:26:52.818Z,36.09
2023-04-05T14:27:52.788Z,36.14
2023-04-05T14:28:52.826Z,36.08
2023-04-05T14:29:52.798Z,36.14
2023-04-05T14:30:52.832Z,36.04
2023-04-05T14:31:52.864Z,35.98
2023-04-05T14:32:52.859Z,36.02
2023-04-05T14:33:52.840Z,36.06
2023-04-05T14:34:52.861Z,36.04
2023-04-05T14:35:52.899Z,35.94
2023-04-05T14:36:52.861Z,35.95
2023-04-05T14:37:52.874Z,35.90
2023-04-05T14:38:52.911Z,35.84
2023-04-05T14:39:52.887Z,35.82
2023-04-05T14:40:52.900Z,35.86
2023-04-05T14:41:53.003Z,35.80
2023-04-05T14:42:52.912Z,35.76
2023-04-05T14:43:52.912Z,35.72
2023-04-05T14:44:52.963Z,35.80
2023-04-05T14:45:52.999Z,35.72
2023-04-05T14:46:52.941Z,35.71
2023-04-05T14:47:52.954Z,35.65
2023-04-05T14:48:52.958Z,35.62
2023-04-05T14:49:52.958Z,35.60
2023-04-05T14:50:52.965Z,35.60
2023-04-05T14:51:52.973Z,35.49
2023-04-05T14:52:52.981Z,35.46
2023-04-05T14:53:53.008Z,35.43
2023-04-05T14:54:52.990Z,35.42
2023-04-05T14:55:53.013Z,35.38
2023-04-05T14:56:53.012Z,35.26
2023-04-05T14:57:53.012Z,35.23
2023-04-05T14:58:53.064Z,35.18
2023-04-05T14:59:53.038Z,35.05
2023-04-05T15:00:53.093Z,35.06
2023-04-05T15:01:53.041Z,34.94
2023-04-05T15:02:53.142Z,34.90
2023-04-05T15:03:53.937Z,34.78
2023-04-05T15:04:53.082Z,34.75
2023-04-05T15:05:53.089Z,34.69
2023-04-05T15:06:53.075Z,34.66
2023-04-05T15:07:53.081Z,34.55
2023-04-05T15:08:53.088Z,34.48
2023-04-05T15:09:53.105Z,34.33
2023-04-05T15:10:53.100Z,34.24
2023-04-05T15:11:55.070Z,34.15
2023-04-05T15:12:53.113Z,34.10
2023-04-05T15:13:53.161Z,33.90
2023-04-05T15:14:53.149Z,33.87
2023-04-05T15:15:53.134Z,33.62
2023-04-05T15:16:53.198Z,33.55
2023-04-05T15:17:53.203Z,33.43
2023-04-05T15:18:53.157Z,33.17
2023-04-05T15:19:53.168Z,33.03
2023-04-05T15:20:53.169Z,32.91
2023-04-05T15:21:53.167Z,32.72
2023-04-05T15:22:53.175Z,32.56
2023-04-05T15:23:53.183Z,32.43
2023-04-05T15:24:53.187Z,32.15
2023-04-05T15:25:53.206Z,32.08
2023-04-05T15:26:53.193Z,31.80
2023-04-05T15:27:53.204Z,31.63
2023-04-05T15:28:53.205Z,31.33
2023-04-05T15:29:53.210Z,31.23
2023-04-05T15:30:53.243Z,31.06
2023-04-05T15:31:53.256Z,30.89
2023-04-05T15:32:53.284Z,30.67
2023-04-05T15:33:53.250Z,30.57
2023-04-05T15:34:53.247Z,30.40
2023-04-05T15:35:53.281Z,30.24
2023-04-05T15:36:53.244Z,30.06
2023-04-05T15:37:53.254Z,29.85
2023-04-05T15:38:53.245Z,29.76
2023-04-05T15:39:53.262Z,29.58
2023-04-05T15:40:53.257Z,29.47
2023-04-05T15:41:53.262Z,29.23
2023-04-05T15:42:53.252Z,29.13
2023-04-05T15:43:53.309Z,28.95
2023-04-05T15:44:53.264Z,28.95
2023-04-05T15:45:53.325Z,28.73
2023-04-05T15:46:53.353Z,28.58
2023-04-05T15:47:53.325Z,28.41
2023-04-05T15:48:53.304Z,28.31
2023-04-05T15:49:53.276Z,28.11
2023-04-05T15:50:53.278Z,28.02
2023-04-05T15:51:53.288Z,27.91
2023-04-05T15:52:53.311Z,27.76
2023-04-05T15:53:53.292Z,27.71
2023-04-05T15:54:53.325Z,27.57
2023-04-05T15:55:53.288Z,27.52
2023-04-05T15:56:53.294Z,27.36
2023-04-05T15:57:53.291Z,27.23
2023-04-05T15:58:53.316Z,27.09
2023-04-05T15:59:53.312Z,27.00
2023-04-05T16:00:53.314Z,26.89
2023-04-05T16:12:31.261Z,25.76
2023-04-05T16:13:31.211Z,25.63
2023-04-05T16:14:31.212Z,25.57
2023-04-05T16:15:31.208Z,25.45
2023-04-05T16:16:38.637Z,25.37
2023-04-05T16:17:31.335Z,25.32
2023-04-05T16:18:31.203Z,25.32
2023-04-05T16:19:31.210Z,25.20
2023-04-05T16:20:31.198Z,25.15
2023-04-05T16:21:31.194Z,25.08
2023-04-05T16:22:31.202Z,25.00
2023-04-05T16:23:31.193Z,24.96
2023-04-05T16:24:31.430Z,24.83
2023-04-05T16:25:31.182Z,24.78
2023-04-05T16:26:31.192Z,24.75
2023-04-05T16:27:31.196Z,24.77
2023-04-05T16:28:31.215Z,24.63
2023-04-05T16:29:31.189Z,24.54
2023-04-05T16:30:31.181Z,24.48
2023-04-05T16:31:31.226Z,24.55
2023-04-05T16:32:31.246Z,24.44
2023-04-05T16:33:31.179Z,24.39
2023-04-05T16:34:31.185Z,24.24
2023-04-05T16:35:31.208Z,24.26
2023-04-05T16:36:31.194Z,24.26
2023-04-05T16:37:31.194Z,24.19
2023-04-05T16:38:31.477Z,24.09
2023-04-05T16:39:31.174Z,24.08
2023-04-05T16:40:31.175Z,24.03
2023-04-05T16:41:31.194Z,23.97
2023-04-05T16:42:31.170Z,23.94
2023-04-05T16:43:31.182Z,23.99
2023-04-05T16:44:32.273Z,23.89
2023-04-05T16:45:31.231Z,23.75
2023-04-05T16:46:31.196Z,23.77
2023-04-05T16:47:31.184Z,23.75
2023-04-05T16:48:31.155Z,23.71
2023-04-05T16:49:31.156Z,23.71
2023-04-05T16:50:31.178Z,23.64
2023-04-05T16:51:31.163Z,23.57
2023-04-05T16:52:31.147Z,23.57
2023-04-05T16:53:31.145Z,23.45
2023-04-05T16:54:31.145Z,23.45
2023-04-05T16:55:31.161Z,23.42
2023-04-05T16:56:31.148Z,23.40
2023-04-05T16:57:31.154Z,23.38
2023-04-05T16:58:31.138Z,23.37
2023-04-05T16:59:31.153Z,23.29
2023-04-05T17:00:31.197Z,23.24
2023-04-05T17:01:31.139Z,23.22
2023-04-05T17:02:31.205Z,23.22
2023-04-05T17:03:31.185Z,23.25
2023-04-05T17:04:31.120Z,23.15
2023-04-05T17:05:31.139Z,23.04
2023-04-05T17:06:31.123Z,23.10
2023-04-05T17:07:31.122Z,23.00
2023-04-05T17:08:31.125Z,23.09
2023-04-05T17:09:31.109Z,23.03
2023-04-05T17:10:31.113Z,23.01
2023-04-05T17:11:31.115Z,23.01
2023-04-05T17:12:31.117Z,23.01
2023-04-05T17:13:31.107Z,22.92
2023-04-05T17:14:31.110Z,22.86
2023-04-05T17:15:31.121Z,22.86
2023-04-05T17:16:31.110Z,22.89
2023-04-05T17:17:31.131Z,22.82